Terminal Aerodrome Forecast
Issued by NWS Jackson, MS

Home | Current Version | Previous Version | Text Only | Print | Product List | Glossary On
Versions: 1 2 3 4 5 6 7 8 9 10 11 12 13 14 15 16 17
537
FTUS44 KJAN 081127
TAFGWO
TAF
KGWO 081127Z 0812/0912 01008KT P6SM OVC050
     FM081500 36010G16KT P6SM OVC150=

USA.gov is the U.S. government's official web portal to all federal, state and local government web resources and services.